createdAt,value
2017-09-29T01:25:57.688Z,20.37
2017-09-29T01:28:27.195Z,19.91
2017-09-29T01:30:56.592Z,19.85
2017-09-29T01:33:32.130Z,20.15
2017-09-29T01:36:01.560Z,20.32
2017-09-29T01:41:32.089Z,20.48
2017-09-29T01:44:01.498Z,20.49
2017-09-29T01:46:30.939Z,20.53
2017-09-29T01:49:00.560Z,20.52
2017-09-29T01:51:29.882Z,20.52
2017-09-29T01:53:59.217Z,20.51
2017-09-29T01:56:28.679Z,20.47
2017-09-29T01:58:58.045Z,20.42
2017-09-29T02:01:27.337Z,20.45
2017-09-29T02:03:56.916Z,20.46
2017-09-29T02:06:26.236Z,20.43
2017-09-29T02:08:55.894Z,20.45
2017-09-29T02:11:25.236Z,20.45
2017-09-29T02:13:54.509Z,20.44
2017-09-29T02:16:23.887Z,20.45
2017-09-29T02:18:53.201Z,20.46
2017-09-29T02:21:22.484Z,20.36
2017-09-29T02:23:52.446Z,20.37
2017-09-29T02:26:21.753Z,20.39
2017-09-29T02:28:51.250Z,20.38
2017-09-29T02:31:20.651Z,20.37
2017-09-29T02:33:52.414Z,20.01
2017-09-29T02:36:21.727Z,19.77
2017-09-29T02:38:51.598Z,19.82
2017-09-29T02:41:20.936Z,20.00
2017-09-29T02:43:50.201Z,20.08
2017-09-29T02:46:19.513Z,20.16
2017-09-29T02:48:48.737Z,20.16
2017-09-29T02:51:17.577Z,20.20
2017-09-29T02:53:47.165Z,20.19
2017-09-29T02:56:16.463Z,20.19
2017-09-29T02:58:49.759Z,20.09
2017-09-29T03:01:23.157Z,20.09
2017-09-29T03:10:04.163Z,20.11
2017-09-29T03:12:33.388Z,19.97
2017-09-29T03:15:02.533Z,20.00
2017-09-29T03:17:31.589Z,19.94
2017-09-29T03:23:36.172Z,19.96
2017-09-29T03:26:05.500Z,19.95
2017-09-29T03:28:34.821Z,19.94
2017-09-29T03:31:12.944Z,19.89
2017-09-29T03:33:42.121Z,19.89
2017-09-29T03:36:11.344Z,19.84
2017-09-29T03:42:15.001Z,19.75
2017-09-29T03:44:44.440Z,19.76
2017-09-29T03:47:13.541Z,19.65
2017-09-29T03:50:08.375Z,19.67
2017-09-29T03:52:42.705Z,19.64
2017-09-29T03:58:11.166Z,19.48
2017-09-29T04:00:41.811Z,19.31
2017-09-29T04:03:12.172Z,19.35
2017-09-29T04:06:16.190Z,19.25
2017-09-29T04:08:45.333Z,19.29
2017-09-29T04:11:14.409Z,19.21
2017-09-29T04:13:44.198Z,18.94
2017-09-29T04:19:49.589Z,19.05
2017-09-29T04:22:18.588Z,19.02
2017-09-29T04:24:47.544Z,18.83
2017-09-29T04:27:20.982Z,18.85
2017-09-29T04:29:49.960Z,18.85
2017-09-29T04:32:19.685Z,18.78
2017-09-29T04:34:48.744Z,18.66
2017-09-29T04:37:19.968Z,18.63
2017-09-29T04:39:48.930Z,18.25
2017-09-29T04:42:17.915Z,18.32
2017-09-29T04:44:47.022Z,18.34
2017-09-29T04:47:16.304Z,18.35
2017-09-29T04:49:45.254Z,18.27
2017-09-29T04:52:14.161Z,18.24
2017-09-29T04:54:43.608Z,18.23
2017-09-29T04:57:13.551Z,18.20
2017-09-29T04:59:42.448Z,18.20
2017-09-29T05:02:11.476Z,18.18
2017-09-29T05:04:41.379Z,18.03
2017-09-29T05:07:10.309Z,18.06
2017-09-29T05:09:40.400Z,18.12
2017-09-29T05:12:10.476Z,18.14
2017-09-29T05:14:39.408Z,18.16
2017-09-29T05:17:08.702Z,18.18
2017-09-29T05:19:38.706Z,18.21
2017-09-29T05:22:10.268Z,18.20
2017-09-29T05:24:39.692Z,18.23
2017-09-29T16:46:50.233Z,21.91
2017-09-29T16:49:20.663Z,21.86
2017-09-29T16:51:50.506Z,22.02
2017-09-29T16:54:20.129Z,22.17
2017-09-29T16:56:50.296Z,22.32
2017-09-29T16:59:19.936Z,22.37
2017-09-29T17:01:49.404Z,22.41
2017-09-29T17:04:18.906Z,22.40
2017-09-29T17:07:02.798Z,22.15
2017-09-29T17:09:36.751Z,21.84
2017-09-29T17:12:08.981Z,21.88
2017-09-29T17:14:41.284Z,21.81
2017-09-29T17:17:13.450Z,21.38
2017-09-29T17:28:02.562Z,21.74
2017-09-29T17:31:08.154Z,21.71
2017-09-29T17:34:13.823Z,21.71
2017-09-29T17:37:20.467Z,21.55
2017-09-29T17:40:28.194Z,21.38
2017-09-29T17:43:40.027Z,21.19
2017-09-29T17:46:45.555Z,20.87
2017-09-29T17:49:52.347Z,20.82
2017-09-29T17:52:59.795Z,20.32
2017-09-29T17:56:05.353Z,20.45
2017-09-29T17:59:13.860Z,20.38
2017-09-29T18:02:20.562Z,20.43
2017-09-29T18:05:31.104Z,20.45
2017-09-29T18:08:39.279Z,20.43
2017-09-29T18:11:44.914Z,20.41
2017-09-29T18:14:51.519Z,20.30
2017-09-29T18:17:59.744Z,19.90
2017-09-29T18:21:05.382Z,20.07
2017-09-29T18:24:12.059Z,20.26
2017-09-29T18:27:18.854Z,20.24
2017-09-29T18:30:26.535Z,20.35
2017-09-29T18:33:32.116Z,20.48
2017-09-29T18:36:39.753Z,20.55
2017-09-29T18:39:49.364Z,20.52
2017-09-29T18:42:56.022Z,20.51
2017-09-29T18:46:01.644Z,20.46
2017-09-29T18:49:06.934Z,20.29
2017-09-29T18:55:41.021Z,20.05
2017-09-29T18:59:19.710Z,19.64
2017-09-29T19:02:28.035Z,19.54
2017-09-29T19:05:38.627Z,19.30
2017-09-29T19:14:25.750Z,19.18
2017-09-29T19:36:48.455Z,19.31
2017-09-29T20:03:19.400Z,19.35
2017-09-29T20:06:38.919Z,20.04
2017-09-29T20:10:00.429Z,19.99
2017-09-29T20:13:31.827Z,20.05
2017-09-29T20:16:43.578Z,20.03
2017-09-29T20:19:57.187Z,19.87
2017-09-29T20:23:13.071Z,19.90
2017-09-29T20:26:32.295Z,19.86
2017-09-29T20:29:57.356Z,19.73
2017-09-29T20:33:13.239Z,19.32
2017-09-29T20:36:34.531Z,19.41
2017-09-29T20:39:41.184Z,19.22
2017-09-29T20:42:54.764Z,19.09
2017-09-29T20:46:15.211Z,18.92
2017-09-29T20:49:40.197Z,18.95
2017-09-29T20:52:58.451Z,19.10
2017-09-29T20:56:24.376Z,19.32
2017-09-29T21:03:04.719Z,19.40
2017-09-29T21:06:18.204Z,19.45
2017-09-29T21:09:47.754Z,19.67
2017-09-29T21:13:05.495Z,19.71
2017-09-29T21:16:10.879Z,19.76
2017-09-29T21:19:16.555Z,19.57
2017-09-29T21:22:22.103Z,19.34
2017-09-29T21:25:27.582Z,19.64
2017-09-29T21:28:33.187Z,19.84
2017-09-29T21:31:39.556Z,19.76
2017-09-29T21:34:45.229Z,19.68
2017-09-29T21:37:51.786Z,19.85
2017-09-29T21:40:58.282Z,19.88
2017-09-29T21:44:04.731Z,19.85
2017-09-29T21:47:10.292Z,19.89
2017-09-29T21:50:15.811Z,19.94
2017-09-29T21:53:21.269Z,19.91
2017-09-29T21:56:26.767Z,19.97
2017-09-29T21:59:32.280Z,20.16
2017-09-29T22:02:38.684Z,20.08
2017-09-29T22:05:44.194Z,20.11
2017-09-29T22:08:49.866Z,19.76
2017-09-29T22:11:55.522Z,19.96
2017-09-29T22:15:01.983Z,20.04
2017-09-29T22:18:08.758Z,19.82
2017-09-29T22:21:15.210Z,20.28
2017-09-29T22:24:25.911Z,20.02
2017-09-29T22:27:32.491Z,20.19
2017-09-29T22:30:41.026Z,20.35
2017-09-29T22:33:48.755Z,20.17
2017-09-29T22:37:04.416Z,20.31
2017-09-29T22:40:10.127Z,20.36
2017-09-29T22:43:16.882Z,20.30
2017-09-29T22:46:22.567Z,20.57
2017-09-29T22:49:29.214Z,20.49
2017-09-29T22:52:34.775Z,20.65
2017-09-29T22:55:40.519Z,20.46
2017-09-29T22:58:46.898Z,20.57
2017-09-29T23:01:53.647Z,20.58
2017-09-29T23:04:59.396Z,20.85
2017-09-29T23:08:06.138Z,20.88
2017-09-29T23:11:15.835Z,20.89
2017-09-29T23:14:23.695Z,20.86
2017-09-29T23:17:29.285Z,21.00
2017-09-29T23:20:34.638Z,20.95
2017-09-29T23:23:42.378Z,20.89
2017-09-29T23:26:48.059Z,20.48
2017-09-29T23:29:53.775Z,20.83
2017-09-29T23:32:59.454Z,20.74
2017-09-29T23:36:05.930Z,20.85
2017-09-29T23:39:11.508Z,20.88
2017-09-29T23:42:18.067Z,20.59
2017-09-29T23:45:24.766Z,20.25
2017-09-29T23:48:31.358Z,20.37
2017-09-29T23:51:43.195Z,20.52
2017-09-29T23:54:48.845Z,20.47
2017-09-29T23:57:55.438Z,20.37
